DLH54P EDDF-KDFW
Flight info
| Callsign | DLH54P |
|---|---|
| Flight time | N/A |
| Altitude | 34000 |
| Route | OBOKA3W/25C OBOKA Z29 TORNU DCT GALSO Q63 ERING L179 UGBET Q60 OKSAW DCT TEWXI DCT LIPGO DCT ENULA DCT PIKIL/M081F340 DCT 57N020W 58N030W 58N040W 56N050W DCT JANJO/N0467F340 DCT MT J545 YVO DCT KP87Q DCT KG69M DCT KK60K DCT FSM DCT RRNET SEEVR4 |
| Aircraft | A343/H-SDE2E3FGHIJ4J5M1RWXY/LB1D1 |
Departure
| Time | 2026-04-17 21:17 |
|---|---|
| Airport | Frankfurt Main Airport (EDDF) |
Arrival
| Time | N/A |
|---|---|
| Airport | Dallas Fort Worth International Airport (KDFW) |
| Time | Latitude | Longitude | Altitude | Speed | Heading |
|---|---|---|---|---|---|
| 2026-04-17 19:57 | 50.04699 | 8.56160 | 366 ft | 0 kts | 340° |
| 2026-04-17 20:53 | 50.04699 | 8.56161 | 360 ft | 0 kts | 340° |
| 2026-04-17 20:54 | 50.04699 | 8.56160 | 360 ft | 0 kts | 340° |
| 2026-04-17 20:55 | 50.04698 | 8.56160 | 360 ft | 0 kts | 340° |
| 2026-04-17 20:58 | 50.04693 | 8.56163 | 360 ft | 4 kts | 340° |
| 2026-04-17 20:58 | 50.04668 | 8.56177 | 368 ft | 4 kts | 339° |
| 2026-04-17 20:58 | 50.04643 | 8.56193 | 368 ft | 4 kts | 333° |
| 2026-04-17 20:59 | 50.04622 | 8.56216 | 367 ft | 4 kts | 297° |
| 2026-04-17 20:59 | 50.04621 | 8.56243 | 367 ft | 4 kts | 251° |
| 2026-04-17 20:59 | 50.04630 | 8.56282 | 368 ft | 4 kts | 250° |
| 2026-04-17 20:59 | 50.04639 | 8.56322 | 363 ft | 4 kts | 250° |
| 2026-04-17 21:00 | 50.04649 | 8.56361 | 364 ft | 4 kts | 249° |
| 2026-04-17 21:00 | 50.04658 | 8.56400 | 368 ft | 4 kts | 249° |
| 2026-04-17 21:00 | 50.04661 | 8.56411 | 367 ft | 0 kts | 250° |
| 2026-04-17 21:00 | 50.04660 | 8.56411 | 367 ft | 0 kts | 250° |
| 2026-04-17 21:05 | 50.04659 | 8.56404 | 367 ft | 2 kts | 251° |
| 2026-04-17 21:05 | 50.04653 | 8.56379 | 361 ft | 5 kts | 251° |
| 2026-04-17 21:06 | 50.04637 | 8.56309 | 365 ft | 9 kts | 249° |
| 2026-04-17 21:06 | 50.04613 | 8.56208 | 367 ft | 9 kts | 249° |
| 2026-04-17 21:06 | 50.04592 | 8.56121 | 366 ft | 10 kts | 249° |
| 2026-04-17 21:06 | 50.04566 | 8.56014 | 364 ft | 10 kts | 248° |
| 2026-04-17 21:07 | 50.04505 | 8.55944 | 367 ft | 13 kts | 196° |
| 2026-04-17 21:07 | 50.04437 | 8.55915 | 366 ft | 10 kts | 194° |
| 2026-04-17 21:07 | 50.04365 | 8.55917 | 362 ft | 12 kts | 163° |
| 2026-04-17 21:07 | 50.04282 | 8.55959 | 362 ft | 9 kts | 175° |
| 2026-04-17 21:08 | 50.04212 | 8.55919 | 362 ft | 11 kts | 195° |
| 2026-04-17 21:08 | 50.04179 | 8.55926 | 358 ft | 4 kts | 166° |
| 2026-04-17 21:08 | 50.04169 | 8.55931 | 357 ft | 0 kts | 163° |
| 2026-04-17 21:09 | 50.04159 | 8.55935 | 363 ft | 3 kts | 163° |
| 2026-04-17 21:09 | 50.04129 | 8.55951 | 363 ft | 5 kts | 161° |
| 2026-04-17 21:09 | 50.04089 | 8.55979 | 365 ft | 9 kts | 148° |
| 2026-04-17 21:10 | 50.04079 | 8.56075 | 360 ft | 10 kts | 73° |
| 2026-04-17 21:10 | 50.04106 | 8.56193 | 363 ft | 13 kts | 70° |
| 2026-04-17 21:10 | 50.04142 | 8.56343 | 364 ft | 16 kts | 69° |
| 2026-04-17 21:10 | 50.04178 | 8.56494 | 366 ft | 14 kts | 69° |
| 2026-04-17 21:11 | 50.04209 | 8.56623 | 364 ft | 12 kts | 69° |
| 2026-04-17 21:11 | 50.04239 | 8.56747 | 364 ft | 13 kts | 69° |
| 2026-04-17 21:11 | 50.04274 | 8.56895 | 370 ft | 17 kts | 70° |
| 2026-04-17 21:11 | 50.04319 | 8.57084 | 371 ft | 20 kts | 70° |
| 2026-04-17 21:12 | 50.04370 | 8.57298 | 372 ft | 22 kts | 69° |
| 2026-04-17 21:12 | 50.04421 | 8.57512 | 368 ft | 20 kts | 70° |
| 2026-04-17 21:12 | 50.04466 | 8.57699 | 372 ft | 17 kts | 70° |
| 2026-04-17 21:12 | 50.04505 | 8.57863 | 373 ft | 11 kts | 69° |
| 2026-04-17 21:13 | 50.04512 | 8.57893 | 374 ft | 0 kts | 69° |
| 2026-04-17 21:14 | 50.04516 | 8.57906 | 373 ft | 3 kts | 69° |
| 2026-04-17 21:15 | 50.04528 | 8.57960 | 374 ft | 7 kts | 70° |
| 2026-04-17 21:15 | 50.04524 | 8.58051 | 373 ft | 10 kts | 122° |
| 2026-04-17 21:15 | 50.04471 | 8.58098 | 373 ft | 8 kts | 158° |
| 2026-04-17 21:15 | 50.04424 | 8.58119 | 374 ft | 5 kts | 172° |
| 2026-04-17 21:16 | 50.04375 | 8.58098 | 374 ft | 9 kts | 217° |
| 2026-04-17 21:16 | 50.04342 | 8.57977 | 373 ft | 23 kts | 250° |
| 2026-04-17 21:16 | 50.04222 | 8.57487 | 372 ft | 74 kts | 249° |
| 2026-04-17 21:16 | 50.03988 | 8.56502 | 362 ft | 120 kts | 250° |
| 2026-04-17 21:17 | 50.03651 | 8.55085 | 352 ft | 158 kts | 250° |
| 2026-04-17 21:17 | 50.03235 | 8.53329 | 459 ft | 180 kts | 251° |
| 2026-04-17 21:17 | 50.02742 | 8.51558 | 986 ft | 178 kts | 238° |
| 2026-04-17 21:17 | 50.01822 | 8.50300 | 1459 ft | 177 kts | 208° |
| 2026-04-17 21:18 | 50.00668 | 8.49487 | 1766 ft | 189 kts | 197° |
| 2026-04-17 21:18 | 49.99318 | 8.49231 | 2001 ft | 202 kts | 180° |
| 2026-04-17 21:18 | 49.97867 | 8.49165 | 2263 ft | 217 kts | 184° |
| 2026-04-17 21:18 | 49.96288 | 8.48874 | 2434 ft | 240 kts | 191° |
| 2026-04-17 21:19 | 49.94655 | 8.48011 | 2740 ft | 257 kts | 210° |
| 2026-04-17 21:19 | 49.93329 | 8.46134 | 3290 ft | 261 kts | 232° |
| 2026-04-17 21:19 | 49.92172 | 8.43933 | 3887 ft | 266 kts | 228° |
| 2026-04-17 21:19 | 49.91090 | 8.41581 | 4474 ft | 271 kts | 246° |
| 2026-04-17 21:20 | 49.90725 | 8.38703 | 4887 ft | 275 kts | 270° |
| 2026-04-17 21:20 | 49.90812 | 8.35735 | 4986 ft | 277 kts | 273° |
| 2026-04-17 21:20 | 49.90945 | 8.32748 | 4989 ft | 278 kts | 273° |
| 2026-04-17 21:20 | 49.91058 | 8.29760 | 4988 ft | 278 kts | 272° |
| 2026-04-17 21:21 | 49.91153 | 8.26773 | 5149 ft | 277 kts | 272° |
| 2026-04-17 21:21 | 49.91324 | 8.23776 | 5568 ft | 281 kts | 281° |
| 2026-04-17 21:21 | 49.92021 | 8.21034 | 6256 ft | 282 kts | 299° |
| 2026-04-17 21:21 | 49.93054 | 8.18431 | 6917 ft | 285 kts | 301° |
| 2026-04-17 21:22 | 49.94211 | 8.15958 | 7462 ft | 290 kts | 312° |
| 2026-04-17 21:22 | 49.95686 | 8.13808 | 8099 ft | 292 kts | 318° |
| 2026-04-17 21:22 | 49.97238 | 8.11759 | 8729 ft | 293 kts | 318° |
| 2026-04-17 21:22 | 49.98798 | 8.09703 | 9325 ft | 295 kts | 318° |
| 2026-04-17 21:23 | 50.00368 | 8.07622 | 9924 ft | 298 kts | 318° |
| 2026-04-17 21:23 | 50.01950 | 8.05515 | 10411 ft | 302 kts | 317° |
| 2026-04-17 21:23 | 50.03572 | 8.03345 | 10666 ft | 315 kts | 317° |
| 2026-04-17 21:23 | 50.05261 | 8.01083 | 10888 ft | 327 kts | 317° |
| 2026-04-17 21:24 | 50.07016 | 7.98729 | 11124 ft | 339 kts | 317° |
| 2026-04-17 21:24 | 50.08834 | 7.96289 | 11361 ft | 350 kts | 317° |
| 2026-04-17 21:24 | 50.10709 | 7.93768 | 11617 ft | 361 kts | 317° |
| 2026-04-17 21:24 | 50.12628 | 7.91186 | 12008 ft | 367 kts | 317° |
| 2026-04-17 21:25 | 50.14570 | 7.88572 | 12489 ft | 371 kts | 317° |
| 2026-04-17 21:25 | 50.16529 | 7.85931 | 12972 ft | 375 kts | 317° |
| 2026-04-17 21:25 | 50.18510 | 7.83256 | 13170 ft | 378 kts | 317° |
| 2026-04-17 21:25 | 50.20494 | 7.80575 | 13204 ft | 378 kts | 317° |
| 2026-04-17 21:26 | 50.22481 | 7.77886 | 13202 ft | 378 kts | 317° |
| 2026-04-17 21:26 | 50.24490 | 7.75213 | 13190 ft | 380 kts | 320° |
| 2026-04-17 21:26 | 50.26721 | 7.72998 | 13207 ft | 382 kts | 332° |
| 2026-04-17 21:26 | 50.29140 | 7.71257 | 13204 ft | 383 kts | 334° |
| 2026-04-17 21:27 | 50.31586 | 7.69598 | 13206 ft | 383 kts | 334° |
| 2026-04-17 21:27 | 50.34033 | 7.67939 | 13208 ft | 383 kts | 334° |
| 2026-04-17 21:27 | 50.36475 | 7.66275 | 13201 ft | 383 kts | 334° |
| 2026-04-17 21:27 | 50.38922 | 7.64603 | 13210 ft | 383 kts | 334° |
| 2026-04-17 21:28 | 50.41365 | 7.62927 | 13210 ft | 383 kts | 334° |
| 2026-04-17 21:28 | 50.43809 | 7.61247 | 13203 ft | 383 kts | 334° |
| 2026-04-17 21:28 | 50.46249 | 7.59567 | 13203 ft | 383 kts | 334° |
| 2026-04-17 21:28 | 50.48695 | 7.57882 | 13398 ft | 385 kts | 334° |
| 2026-04-17 21:29 | 50.51160 | 7.56180 | 13914 ft | 387 kts | 334° |
| 2026-04-17 21:29 | 50.53628 | 7.54476 | 14436 ft | 388 kts | 334° |
| 2026-04-17 21:29 | 50.56062 | 7.52616 | 14920 ft | 389 kts | 328° |
| 2026-04-17 21:29 | 50.58362 | 7.50385 | 15422 ft | 389 kts | 325° |
| 2026-04-17 21:30 | 50.60637 | 7.48059 | 15881 ft | 391 kts | 324° |
| 2026-04-17 21:30 | 50.62926 | 7.45707 | 16349 ft | 393 kts | 324° |
| 2026-04-17 21:30 | 50.65225 | 7.43344 | 16829 ft | 396 kts | 324° |
| 2026-04-17 21:30 | 50.67534 | 7.40972 | 17320 ft | 397 kts | 324° |
| 2026-04-17 21:31 | 50.69855 | 7.38586 | 17780 ft | 399 kts | 324° |
| 2026-04-17 21:31 | 50.72175 | 7.36148 | 18235 ft | 401 kts | 322° |
| 2026-04-17 21:31 | 50.74263 | 7.33231 | 18670 ft | 401 kts | 309° |
| 2026-04-17 21:31 | 50.75890 | 7.29664 | 19052 ft | 401 kts | 300° |
| 2026-04-17 21:32 | 50.77283 | 7.25836 | 19437 ft | 403 kts | 297° |
| 2026-04-17 21:32 | 50.78573 | 7.21895 | 19830 ft | 405 kts | 295° |
| 2026-04-17 21:32 | 50.79826 | 7.17893 | 20208 ft | 407 kts | 295° |
| 2026-04-17 21:32 | 50.81074 | 7.13874 | 20596 ft | 409 kts | 295° |
| 2026-04-17 21:33 | 50.82340 | 7.09830 | 20974 ft | 411 kts | 295° |
| 2026-04-17 21:33 | 50.83625 | 7.05778 | 21352 ft | 413 kts | 295° |
| 2026-04-17 21:33 | 50.84927 | 7.01710 | 21745 ft | 415 kts | 295° |
| 2026-04-17 21:33 | 50.86242 | 6.97623 | 22098 ft | 417 kts | 295° |
| 2026-04-17 21:34 | 50.87567 | 6.93525 | 22459 ft | 419 kts | 295° |
| 2026-04-17 21:34 | 50.88899 | 6.89401 | 22808 ft | 422 kts | 295° |
| 2026-04-17 21:34 | 50.91568 | 6.81092 | 23490 ft | 425 kts | 295° |
| 2026-04-17 21:35 | 50.92910 | 6.76898 | 23822 ft | 427 kts | 295° |
| 2026-04-17 21:35 | 50.94255 | 6.72689 | 24099 ft | 429 kts | 295° |
| 2026-04-17 21:35 | 50.95608 | 6.68449 | 24382 ft | 431 kts | 295° |
| 2026-04-17 21:35 | 50.96960 | 6.64203 | 24656 ft | 433 kts | 295° |